Packwaukee, WI (53953)

1:23 PM CST on February 11, 2016 (GMT -0600)
Marquette County | | Change Station
CLOSE
Current Station
Personal Weather Station
Location: Montello, WI
Elevation: 797 ft
Nearby Weather Stations

Elev 797 ft 43.79 °N, 89.34 °W | Updated 15 minutes ago

Clear
Clear
16.0 °F
Feels Like 16 °F
N
3.0
Wind Variable Wind from NW
Gusts 10.0 mph

Today
High -- | Low -- °F
--% Chance of Precip.
Yesterday
High -- | Low -- °F
Precip. -- in
Pressure 30.33 in
Visibility 10.0 miles
Clouds Clear
Windchill 16 °F
Dew Point 4 °F
Humidity 57%
Rainfall Not available.
Snow Depth Not available.
7:02 AM 5:21 PM
Waxing Crescent, 14% visible
METAR KY50 111856Z AUTO 27009KT 10SM CLR M09/M19 A3028 RMK AO2 TSNO T10881194 SLP270
Pressure 30.33 in
Visibility 10.0 miles
Clouds Clear
Windchill 16 °F
Dew Point 4 °F
Humidity 57%
Rainfall Not available.
Snow Depth Not available.
7:02 AM 5:21 PM
Waxing Crescent, 14% visible
METAR KY50 111856Z AUTO 27009KT 10SM CLR M09/M19 A3028 RMK AO2 TSNO T10881194 SLP270

10-Day Weather Forecast

Almanac

Astronomy

Feb. 11, 2016 Rise Set
Actual Time
Civil Twilight
Nautical Twilight
Astronomical Twilight
Moon
Length of Visible Light
Length of Day
Tomorrow will be .
, % of the Moon is Illuminated

Today's Extremes

State Highs State Lows

Community

WunderPhotos

Upload Photos

1,892,142 photos uploaded!

WunderBlog® & News

Nearby

Air Quality

  Air Quality AQ Index Pollutant
Not available.

Snow Depth

Station Depth Elevation

Earthquake Activity

City Distance Mag. Time & Date
Minimum magnitude displayed is 2.5.

Coastal Water Temperatures

Place Temperature

Stations

Nearby Weather Stations

Station Location Temp. Windchill Dew Point Humidity Wind Precip. Elev Updated Type
                   

Watches & Warnings

There are currently no watches in effect.